Flight Track Log - Related Links

Times and Time Zones

All times are in EDT time to prevent confusion due to time zone crossing. See the THY1074 flight status page for this flight to view local times or setup timezone preferences in your user account.

Time Position Orientation Groundspeed Altitude Reporting Facility
EDT Latitude Longitude Course Direction KTS MPH feet Rate Location/Type
Thu 03:49:00 AM 41.3438 22.9020 91° East  Level Estimated
Thu 03:50:00 AM 41.3387 23.0402 93° East  Level Estimated
Thu 03:51:00 AM 41.3335 23.1783 93° East  Level Estimated
Thu 03:52:00 AM 41.3281 23.3164 93° East  Level Estimated
Thu 03:53:00 AM 41.3225 23.4544 93° East  Level Estimated
Thu 03:54:00 AM 41.3168 23.5925 93° East  Level Estimated
Thu 03:55:00 AM 41.3109 23.7305 93° East  Level Estimated
Thu 03:56:00 AM 41.3048 23.8685 93° East  Level Estimated
Thu 03:57:00 AM 41.2986 24.0065 93° East  Level Estimated
Thu 03:58:00 AM 41.2922 24.1444 93° East  Level Estimated
Thu 03:59:00 AM 41.2856 24.2823 94° East  Level Estimated
Thu 04:00:00 AM 41.2789 24.4202 94° East  Level Estimated
Thu 04:01:00 AM 41.2720 24.5580 94° East  Level Estimated
Thu 04:02:00 AM 41.2650 24.6959 94° East  Level Estimated
Thu 04:03:00 AM 41.2578 24.8337 94° East  Level Estimated
Thu 04:04:00 AM 41.2504 24.9714 94° East  Level Estimated
Thu 04:05:00 AM 41.2429 25.1091 94° East  Level Estimated
Thu 04:06:00 AM 41.2352 25.2468 94° East  Level Estimated
Thu 04:07:00 AM 41.2273 25.3845 94° East  Level Estimated
Thu 04:08:00 AM 41.2193 25.5222 94° East  Level Estimated
Thu 04:09:00 AM 41.2111 25.6597 94° East  Level Estimated
Thu 04:10:00 AM 41.2027 25.7973 95° East  Level Estimated
Thu 04:11:00 AM 41.1942 25.9349 95° East  Level Estimated
Thu 04:12:00 AM 41.1855 26.0723 95° East  Level Estimated
Thu 04:13:00 AM 41.1767 26.2098 95° East  Level Estimated
Thu 04:14:00 AM 41.1676 26.3472 95° East  Level Estimated
Thu 04:15:00 AM 41.1585 26.4846 95° East  Level Estimated
Thu 04:16:00 AM 41.1491 26.6219 95° East  Level Estimated
Thu 04:17:00 AM 41.1396 26.7592 95° East  Level Estimated
Thu 04:18:00 AM 41.1300 26.8965 95° East  Level Estimated
Thu 04:19:00 AM 41.1201 27.0337 95° East  Level Estimated
Thu 04:20:00 AM 41.1101 27.1709 95° East  Level Estimated
Thu 04:21:00 AM 41.1000 27.3080 96° East  Level Estimated
Thu 04:22:00 AM 41.0896 27.4451 96° East  Level Estimated
Thu 04:23:00 AM 41.0792 27.5822 96° East  Level Estimated
Thu 04:24:00 AM 41.0685 27.7192 96° East  Level Estimated
Thu 04:25:00 AM 41.0577 27.8562 96° East  Level Estimated
Thu 04:26:00 AM 41.0467 27.9931 96° East  Level Estimated
Thu 04:27:00 AM 41.0356 28.1299 96° East  Level Estimated
Thu 04:28:00 AM 41.0243 28.2668 96° East  Level Estimated
Thu 04:29:00 AM 41.0129 28.4036 96° East  Level Estimated
Thu 04:30:00 AM 41.0013 28.5403 96° East  Level Estimated
Thu 04:31:00 AM 40.9895 28.6770 96° East  Level Estimated
Thu 04:32:00 AM 40.9776 28.8136 97° East  Level Estimated
Thu 04:33:00 AM 40.9769 28.8211 97° East  Level Estimated
Thu 04:34:00 AM 40.9769 28.8211 21° North  Level Estimated
Thu 04:35:00 AM 40.9769 28.8211 21° North  Level Estimated
Thu 04:36:00 AM 40.9769 28.8211 21° North  Level Estimated
Thu 04:37:00 AM 40.9769 28.8211 21° North  Level Estimated
Thu 04:38:00 AM 40.9769 28.8211 21° North  Level Estimated
Thu 04:39:00 AM 40.9769 28.8211 21° North  Level Estimated
Thu 04:40:00 AM 40.9769 28.8211 21° North  Level Estimated
Thu 04:41:00 AM 40.9769 28.8211 21° North  Level Estimated
Thu 04:42:00 AM 40.9769 28.8211 21° North  Level Estimated
Thu 04:43:00 AM 40.9769 28.8211 21° North  Level Estimated
Thu 04:44:00 AM 40.9769 28.8211 21° North  Level Estimated
Thu 04:45:00 AM 40.9769 28.8211 21° North  Level Estimated
Thu 04:46:00 AM 40.9769 28.8211 21° North  Level Estimated
Thu 04:47:00 AM 40.9769 28.8211 21° North  Level Estimated
Thu 04:48:00 AM 40.9769 28.8211 21° North  Level Estimated

Login

Don't have an account? Register now (free) for customized features, flight alerts, and more!